Time;durP1;ratioP1;P1;durP2;ratioP2;P2;SDS_P1;SDS_P2;PMS_P1;PMS_P2;Temp;Humidity;BMP_temperature;BMP_pressure;BME280_temperature;BME280_humidity;BME280_pressure;Samples;Min_cycle;Max_cycle;Signal;HPM_P1;HPM_P2
2022/03/01 00:00:14;;;;;;;18.93;12.33;;;;;;;;;;5032407;28;20266;-77
2022/03/01 00:02:43;;;;;;;18.13;11.10;;;;;;;;;;5033258;28;20581;-78
2022/03/01 00:05:12;;;;;;;22.07;12.03;;;;;;;;;;5032418;28;20540;-78
2022/03/01 00:07:40;;;;;;;21.47;13.50;;;;;;;;;;5033376;28;20254;-77
2022/03/01 00:10:09;;;;;;;19.03;12.37;;;;;;;;;;5032700;28;20214;-78
2022/03/01 00:12:39;;;;;;;21.13;12.00;;;;;;;;;;5034108;28;20203;-78
2022/03/01 00:15:08;;;;;;;19.97;12.43;;;;;;;;;;5032408;28;20215;-77
2022/03/01 00:17:37;;;;;;;21.57;12.90;;;;;;;;;;5032207;28;20234;-78
2022/03/01 00:20:05;;;;;;;19.27;12.50;;;;;;;;;;5031188;28;20659;-78
2022/03/01 00:22:34;;;;;;;19.87;11.80;;;;;;;;;;5033726;28;20203;-77
2022/03/01 00:25:04;;;;;;;21.23;13.33;;;;;;;;;;5030681;28;20217;-77
2022/03/01 00:27:35;;;;;;;22.40;13.67;;;;;;;;;;5032921;28;20706;-77
2022/03/01 00:30:05;;;;;;;19.40;12.43;;;;;;;;;;5028777;28;20735;-77
2022/03/01 00:32:33;;;;;;;18.50;11.83;;;;;;;;;;5033185;28;20614;-77
2022/03/01 00:35:02;;;;;;;19.93;12.57;;;;;;;;;;5030500;28;20208;-78
2022/03/01 00:37:31;;;;;;;22.33;12.77;;;;;;;;;;5033089;28;20226;-78
2022/03/01 00:39:59;;;;;;;22.10;13.30;;;;;;;;;;5029218;28;20207;-78
2022/03/01 00:42:28;;;;;;;17.93;11.90;;;;;;;;;;5032909;28;20862;-77
2022/03/01 00:44:56;;;;;;;19.40;12.30;;;;;;;;;;5033091;28;20650;-78
2022/03/01 00:47:26;;;;;;;20.47;12.73;;;;;;;;;;5034589;28;20278;-78
2022/03/01 00:49:54;;;;;;;21.07;13.13;;;;;;;;;;5031492;28;20252;-78
2022/03/01 00:52:23;;;;;;;21.50;13.23;;;;;;;;;;5033314;28;20268;-78
2022/03/01 00:54:51;;;;;;;19.67;12.53;;;;;;;;;;5031945;28;20218;-78
2022/03/01 00:57:20;;;;;;;19.20;12.77;;;;;;;;;;5032088;28;20234;-78
2022/03/01 00:59:48;;;;;;;22.00;13.37;;;;;;;;;;5030949;28;20214;-78
2022/03/01 01:02:17;;;;;;;21.63;12.97;;;;;;;;;;5032122;28;20211;-78
2022/03/01 01:04:47;;;;;;;22.37;13.63;;;;;;;;;;5031614;28;20206;-78
2022/03/01 01:07:15;;;;;;;20.00;13.00;;;;;;;;;;5032701;28;20223;-78
2022/03/01 01:09:44;;;;;;;23.10;13.60;;;;;;;;;;5031219;28;20207;-78
2022/03/01 01:12:12;;;;;;;22.57;13.23;;;;;;;;;;5033068;28;20662;-78
2022/03/01 01:14:41;;;;;;;25.10;13.93;;;;;;;;;;5028628;28;20207;-78
2022/03/01 01:17:12;;;;;;;23.13;13.03;;;;;;;;;;5031595;28;20227;-78
2022/03/01 01:19:40;;;;;;;20.80;13.00;;;;;;;;;;5033161;28;20569;-78
2022/03/01 01:24:59;;;;;;;22.00;13.30;;;;;;;;;;5032692;28;20206;-78
2022/03/01 01:27:27;;;;;;;21.17;12.83;;;;;;;;;;5031941;28;20227;-78
2022/03/01 01:29:56;;;;;;;20.77;12.77;;;;;;;;;;5032937;28;20202;-77
2022/03/01 01:32:24;;;;;;;20.90;13.50;;;;;;;;;;5037277;28;20257;-77
2022/03/01 01:34:53;;;;;;;23.07;13.13;;;;;;;;;;5036817;28;20207;-77
2022/03/01 01:37:23;;;;;;;22.70;13.53;;;;;;;;;;5036505;28;20280;-78
2022/03/01 01:39:51;;;;;;;18.90;12.87;;;;;;;;;;5036676;28;20601;-78
2022/03/01 01:42:20;;;;;;;19.23;13.13;;;;;;;;;;5035989;28;20206;-77
2022/03/01 01:51:01;;;;;;;20.00;12.27;;;;;;;;;;5251145;22;20238;-77
2022/03/01 01:53:31;;;;;;;19.67;12.57;;;;;;;;;;5055528;28;20233;-77
2022/03/01 01:55:59;;;;;;;19.53;12.60;;;;;;;;;;5054844;28;20261;-77
2022/03/01 01:58:28;;;;;;;20.77;12.57;;;;;;;;;;5054661;28;20229;-77
2022/03/01 02:00:56;;;;;;;21.37;13.10;;;;;;;;;;5054235;28;20570;-77
2022/03/01 02:03:25;;;;;;;22.53;13.07;;;;;;;;;;5053586;28;20205;-77
2022/03/01 02:05:54;;;;;;;19.60;12.90;;;;;;;;;;5054059;28;20289;-77
2022/03/01 02:08:30;;;;;;;20.23;13.07;;;;;;;;;;5045831;28;20229;-77
2022/03/01 02:10:59;;;;;;;20.77;13.20;;;;;;;;;;5055223;28;20205;-77
2022/03/01 02:13:28;;;;;;;20.37;13.13;;;;;;;;;;5055031;28;20289;-78
2022/03/01 02:15:57;;;;;;;20.93;13.60;;;;;;;;;;5054063;28;20209;-78
2022/03/01 02:18:26;;;;;;;22.40;13.33;;;;;;;;;;5050921;28;20225;-78
2022/03/01 02:20:56;;;;;;;22.63;13.00;;;;;;;;;;5055528;28;20272;-77
2022/03/01 02:23:24;;;;;;;22.20;13.80;;;;;;;;;;5054744;28;20203;-77
2022/03/01 02:25:53;;;;;;;21.87;13.37;;;;;;;;;;5054069;28;20664;-77
2022/03/01 02:28:21;;;;;;;25.57;14.50;;;;;;;;;;5054367;28;20664;-77
2022/03/01 02:30:49;;;;;;;25.43;14.87;;;;;;;;;;5052889;28;20252;-77
2022/03/01 02:33:18;;;;;;;22.17;13.17;;;;;;;;;;5054090;28;20710;-77
2022/03/01 02:35:46;;;;;;;20.67;13.40;;;;;;;;;;5054405;28;20252;-77
2022/03/01 02:38:16;;;;;;;23.00;13.83;;;;;;;;;;5054506;28;20232;-77
2022/03/01 02:40:45;;;;;;;21.53;13.67;;;;;;;;;;5044909;28;20264;-77
2022/03/01 02:43:13;;;;;;;20.70;13.47;;;;;;;;;;5053406;28;20211;-77
2022/03/01 02:45:41;;;;;;;21.57;13.77;;;;;;;;;;5052652;28;20681;-78
2022/03/01 02:48:10;;;;;;;21.80;14.13;;;;;;;;;;5055750;28;20203;-77
2022/03/01 02:50:38;;;;;;;21.90;13.83;;;;;;;;;;5052747;28;20217;-77
2022/03/01 02:53:08;;;;;;;20.70;13.33;;;;;;;;;;5055313;28;20210;-77
2022/03/01 02:55:40;;;;;;;20.37;13.30;;;;;;;;;;5053606;28;20217;-77
2022/03/01 02:58:08;;;;;;;20.40;12.70;;;;;;;;;;5054743;28;20241;-77
2022/03/01 03:00:40;;;;;;;20.47;12.80;;;;;;;;;;5051003;28;20646;-77
2022/03/01 03:03:08;;;;;;;19.57;12.80;;;;;;;;;;5055306;28;20204;-77
2022/03/01 03:05:37;;;;;;;21.37;13.77;;;;;;;;;;5053377;28;20292;-77
2022/03/01 03:08:08;;;;;;;20.50;12.60;;;;;;;;;;5053090;28;20201;-77
2022/03/01 03:10:37;;;;;;;21.60;13.00;;;;;;;;;;5054231;28;20210;-76
2022/03/01 03:13:07;;;;;;;20.87;13.63;;;;;;;;;;5051449;28;20692;-77
2022/03/01 03:15:37;;;;;;;20.57;13.10;;;;;;;;;;5051277;28;20206;-77
2022/03/01 03:18:06;;;;;;;20.50;12.97;;;;;;;;;;5052973;28;20226;-77
2022/03/01 03:20:35;;;;;;;19.40;12.97;;;;;;;;;;5053612;28;20202;-77
2022/03/01 03:23:03;;;;;;;21.00;12.93;;;;;;;;;;5053779;28;20209;-77
2022/03/01 03:25:32;;;;;;;21.20;13.20;;;;;;;;;;5053222;28;20215;-77
2022/03/01 03:28:00;;;;;;;24.57;13.67;;;;;;;;;;5052742;28;20225;-77
2022/03/01 03:30:30;;;;;;;20.40;13.10;;;;;;;;;;5053512;28;20202;-76
2022/03/01 03:32:59;;;;;;;27.17;13.63;;;;;;;;;;5051827;28;20218;-77
2022/03/01 03:35:27;;;;;;;20.33;12.93;;;;;;;;;;5052356;28;20202;-77
2022/03/01 03:37:55;;;;;;;24.77;14.47;;;;;;;;;;5052765;28;20221;-76
2022/03/01 03:40:24;;;;;;;22.47;14.60;;;;;;;;;;5053338;28;20204;-76
2022/03/01 03:42:52;;;;;;;22.90;14.23;;;;;;;;;;5053424;28;20545;-76
2022/03/01 03:45:21;;;;;;;22.53;14.37;;;;;;;;;;5050895;28;20567;-76
2022/03/01 03:47:51;;;;;;;24.57;14.77;;;;;;;;;;5053129;28;20230;-76
2022/03/01 03:50:19;;;;;;;21.07;13.23;;;;;;;;;;5053397;28;20216;-76
2022/03/01 03:52:48;;;;;;;20.53;13.37;;;;;;;;;;5052858;28;20203;-76
2022/03/01 03:55:16;;;;;;;21.57;13.17;;;;;;;;;;5051227;28;20254;-77
2022/03/01 03:57:45;;;;;;;23.17;14.37;;;;;;;;;;5052132;28;20295;-76
2022/03/01 04:00:16;;;;;;;22.53;14.03;;;;;;;;;;5052117;28;20701;-76
2022/03/01 04:02:46;;;;;;;24.43;14.53;;;;;;;;;;5054353;28;20208;-77
2022/03/01 04:05:16;;;;;;;24.17;14.37;;;;;;;;;;5051303;28;20615;-76
2022/03/01 04:07:46;;;;;;;24.80;14.57;;;;;;;;;;5034244;28;20234;-76
2022/03/01 04:10:15;;;;;;;21.53;13.70;;;;;;;;;;5034008;28;20215;-76
2022/03/01 04:12:44;;;;;;;23.73;13.87;;;;;;;;;;5037470;28;20217;-76
2022/03/01 04:15:13;;;;;;;24.33;14.00;;;;;;;;;;5038861;28;20666;-77
2022/03/01 04:17:41;;;;;;;22.90;13.83;;;;;;;;;;5051559;28;20221;-76
2022/03/01 04:20:11;;;;;;;24.23;14.50;;;;;;;;;;5051758;28;20225;-77
2022/03/01 04:22:41;;;;;;;21.63;13.67;;;;;;;;;;5053002;28;20203;-76
2022/03/01 04:25:10;;;;;;;21.83;13.60;;;;;;;;;;5051457;28;20545;-76
2022/03/01 04:27:39;;;;;;;23.17;13.93;;;;;;;;;;5046758;28;20220;-76
2022/03/01 04:30:11;;;;;;;21.77;13.73;;;;;;;;;;5048952;28;20208;-76
2022/03/01 04:32:39;;;;;;;21.17;13.07;;;;;;;;;;5048583;28;20255;-76
2022/03/01 04:35:09;;;;;;;20.77;13.07;;;;;;;;;;5049863;28;20209;-76
2022/03/01 04:37:37;;;;;;;20.77;13.40;;;;;;;;;;5051290;28;20224;-76
2022/03/01 04:40:11;;;;;;;21.57;13.27;;;;;;;;;;5050996;28;20759;-80
2022/03/01 04:42:39;;;;;;;21.70;13.57;;;;;;;;;;5052405;28;20259;-77
2022/03/01 04:45:10;;;;;;;21.23;13.77;;;;;;;;;;5050387;28;20213;-76
2022/03/01 04:47:39;;;;;;;23.30;14.40;;;;;;;;;;5053031;28;20222;-76
2022/03/01 04:50:08;;;;;;;21.20;13.83;;;;;;;;;;5051805;28;20215;-76
2022/03/01 04:52:36;;;;;;;21.60;13.50;;;;;;;;;;5052926;28;20209;-77
2022/03/01 04:55:05;;;;;;;23.27;13.43;;;;;;;;;;5051464;28;20682;-76
2022/03/01 04:57:35;;;;;;;24.00;14.30;;;;;;;;;;5052129;28;20304;-76
2022/03/01 05:00:10;;;;;;;23.53;14.07;;;;;;;;;;5045774;28;20220;-76
2022/03/01 05:02:39;;;;;;;22.63;13.90;;;;;;;;;;5050793;28;20204;-76
2022/03/01 05:05:10;;;;;;;22.83;13.73;;;;;;;;;;5045909;28;20205;-76
2022/03/01 05:07:39;;;;;;;22.50;14.27;;;;;;;;;;5050713;28;20623;-77
2022/03/01 05:10:09;;;;;;;21.77;13.33;;;;;;;;;;5052134;28;20202;-76
2022/03/01 05:12:46;;;;;;;21.50;13.57;;;;;;;;;;5052944;28;20212;-78
2022/03/01 05:15:15;;;;;;;22.37;13.60;;;;;;;;;;5034814;28;20244;-78
2022/03/01 05:17:44;;;;;;;22.73;13.40;;;;;;;;;;5041495;28;20238;-78
2022/03/01 05:20:13;;;;;;;21.67;13.63;;;;;;;;;;5039636;28;20225;-78
2022/03/01 05:22:42;;;;;;;24.83;14.93;;;;;;;;;;5042275;28;20212;-78
2022/03/01 05:25:12;;;;;;;21.57;13.40;;;;;;;;;;5052657;28;20275;-78
2022/03/01 05:27:42;;;;;;;23.87;14.00;;;;;;;;;;5048560;28;20607;-78
2022/03/01 05:30:13;;;;;;;24.03;14.77;;;;;;;;;;5050944;28;20213;-78
2022/03/01 05:32:42;;;;;;;21.83;13.80;;;;;;;;;;5052041;28;20209;-78
2022/03/01 05:35:13;;;;;;;24.27;14.07;;;;;;;;;;5050277;28;20282;-78
2022/03/01 05:37:42;;;;;;;21.33;13.63;;;;;;;;;;5048623;28;20316;-78
2022/03/01 05:40:12;;;;;;;25.30;15.03;;;;;;;;;;5048643;28;20227;-78
2022/03/01 05:42:42;;;;;;;21.57;12.90;;;;;;;;;;5051135;28;20288;-78
2022/03/01 05:45:12;;;;;;;22.47;13.57;;;;;;;;;;5050576;28;20206;-78
2022/03/01 05:47:44;;;;;;;23.77;14.00;;;;;;;;;;5049479;28;20225;-78
2022/03/01 05:50:13;;;;;;;22.93;13.73;;;;;;;;;;5049979;28;20217;-79
2022/03/01 05:52:46;;;;;;;23.77;13.93;;;;;;;;;;5050941;28;20665;-78
2022/03/01 05:55:15;;;;;;;24.23;13.63;;;;;;;;;;5051643;28;20227;-78
2022/03/01 05:57:43;;;;;;;24.80;15.10;;;;;;;;;;5049124;28;20708;-78
2022/03/01 06:00:14;;;;;;;25.30;14.67;;;;;;;;;;5049369;28;20233;-78
2022/03/01 06:02:43;;;;;;;21.33;13.20;;;;;;;;;;5051884;28;20626;-78
2022/03/01 06:05:12;;;;;;;26.03;14.43;;;;;;;;;;5051118;28;20206;-79
2022/03/01 06:07:41;;;;;;;27.23;15.13;;;;;;;;;;5053015;28;20239;-78
2022/03/01 06:10:10;;;;;;;23.13;14.07;;;;;;;;;;5049394;28;20210;-82
2022/03/01 06:12:38;;;;;;;23.00;13.70;;;;;;;;;;5047439;28;20218;-78
2022/03/01 06:15:07;;;;;;;21.60;13.63;;;;;;;;;;5051606;28;20259;-80
2022/03/01 06:17:37;;;;;;;24.30;13.97;;;;;;;;;;5051629;28;20686;-79
2022/03/01 06:20:09;;;;;;;23.03;13.07;;;;;;;;;;5056448;28;20217;-78
2022/03/01 06:22:37;;;;;;;19.73;12.57;;;;;;;;;;5056489;28;20251;-80
2022/03/01 06:25:09;;;;;;;22.07;13.57;;;;;;;;;;5055480;28;20221;-79
2022/03/01 06:27:38;;;;;;;21.47;12.90;;;;;;;;;;5054402;28;20218;-78
2022/03/01 06:30:08;;;;;;;20.00;13.53;;;;;;;;;;5055357;28;20252;-79
2022/03/01 06:32:37;;;;;;;21.43;12.57;;;;;;;;;;5055966;28;20194;-79
2022/03/01 06:35:07;;;;;;;21.00;12.27;;;;;;;;;;5056038;28;20197;-79
2022/03/01 06:37:40;;;;;;;21.43;13.10;;;;;;;;;;5056122;28;20260;-78
2022/03/01 06:40:12;;;;;;;19.53;13.40;;;;;;;;;;5055080;28;20340;-79
2022/03/01 06:42:41;;;;;;;22.50;13.63;;;;;;;;;;5055785;28;20200;-77
2022/03/01 06:45:10;;;;;;;22.27;12.70;;;;;;;;;;5054547;28;20262;-80
2022/03/01 06:47:39;;;;;;;19.97;13.20;;;;;;;;;;5055156;28;20218;-80
2022/03/01 06:50:09;;;;;;;19.57;12.20;;;;;;;;;;5055469;28;20204;-79
2022/03/01 06:52:37;;;;;;;20.93;12.80;;;;;;;;;;5055644;28;20214;-78
2022/03/01 06:55:08;;;;;;;20.37;13.23;;;;;;;;;;5047561;28;20205;-77
2022/03/01 06:57:38;;;;;;;22.43;13.27;;;;;;;;;;5051872;28;20222;-79
2022/03/01 07:00:07;;;;;;;19.40;12.60;;;;;;;;;;5055333;28;20395;-78
2022/03/01 07:02:38;;;;;;;21.47;13.33;;;;;;;;;;5054790;28;20212;-80
2022/03/01 07:05:10;;;;;;;20.17;13.33;;;;;;;;;;5055138;28;20696;-80
2022/03/01 07:07:38;;;;;;;20.97;12.90;;;;;;;;;;5055097;28;20237;-80
2022/03/01 07:10:08;;;;;;;24.77;14.37;;;;;;;;;;5055088;28;20210;-77
2022/03/01 07:12:37;;;;;;;21.30;13.40;;;;;;;;;;5055538;28;20203;-79
2022/03/01 07:15:06;;;;;;;22.23;13.13;;;;;;;;;;5054778;28;20260;-78
2022/03/01 07:17:34;;;;;;;18.60;12.43;;;;;;;;;;5055255;28;20266;-79
2022/03/01 07:20:03;;;;;;;21.07;13.83;;;;;;;;;;5055667;28;20227;-80
2022/03/01 07:22:33;;;;;;;21.13;12.67;;;;;;;;;;5055956;28;20206;-80
2022/03/01 07:25:01;;;;;;;20.33;12.17;;;;;;;;;;5057272;28;20731;-78
2022/03/01 07:27:29;;;;;;;20.77;12.90;;;;;;;;;;5055718;28;20627;-80
2022/03/01 07:29:58;;;;;;;20.50;12.93;;;;;;;;;;5059522;28;20211;-80
2022/03/01 07:32:27;;;;;;;22.50;13.13;;;;;;;;;;5059624;28;20215;-79
2022/03/01 07:34:55;;;;;;;19.50;12.43;;;;;;;;;;5059504;28;20203;-78
2022/03/01 07:37:24;;;;;;;20.03;12.80;;;;;;;;;;5059777;28;20227;-80
2022/03/01 07:39:55;;;;;;;20.87;12.03;;;;;;;;;;5056692;28;20206;-78
2022/03/01 07:42:24;;;;;;;18.17;12.33;;;;;;;;;;5058641;28;20195;-80
2022/03/01 07:44:52;;;;;;;18.83;12.40;;;;;;;;;;5057422;28;20207;-79
2022/03/01 07:47:21;;;;;;;18.63;11.40;;;;;;;;;;5057419;28;20656;-76
2022/03/01 07:49:55;;;;;;;19.13;11.30;;;;;;;;;;5057774;28;20686;-80
2022/03/01 07:52:23;;;;;;;17.67;12.10;;;;;;;;;;5058977;28;20647;-77
2022/03/01 07:54:52;;;;;;;18.87;11.90;;;;;;;;;;5059750;28;20203;-78
2022/03/01 07:57:22;;;;;;;16.43;11.40;;;;;;;;;;5059292;28;20223;-79
2022/03/01 07:59:51;;;;;;;20.33;12.40;;;;;;;;;;5059226;28;20202;-78
2022/03/01 08:02:19;;;;;;;19.03;11.80;;;;;;;;;;5058948;28;20219;-79
2022/03/01 08:04:48;;;;;;;17.63;11.33;;;;;;;;;;5060185;28;20273;-80
2022/03/01 08:07:37;;;;;;;18.03;11.77;;;;;;;;;;5061488;28;20227;-77
2022/03/01 08:10:05;;;;;;;18.70;11.77;;;;;;;;;;5062861;28;20208;-79
2022/03/01 08:12:35;;;;;;;19.77;11.67;;;;;;;;;;5061906;28;20208;-77
2022/03/01 08:15:04;;;;;;;16.20;11.20;;;;;;;;;;5060571;28;20214;-78
2022/03/01 08:17:32;;;;;;;18.67;11.67;;;;;;;;;;5062827;28;20246;-77
2022/03/01 08:20:00;;;;;;;16.57;11.07;;;;;;;;;;5061646;28;20227;-79
2022/03/01 08:22:29;;;;;;;15.57;11.17;;;;;;;;;;5062118;28;20231;-79
2022/03/01 08:24:57;;;;;;;16.83;11.47;;;;;;;;;;5064366;28;20211;-81
2022/03/01 08:27:26;;;;;;;16.67;11.37;;;;;;;;;;5065543;28;20711;-79
2022/03/01 08:29:55;;;;;;;16.63;11.80;;;;;;;;;;5064024;28;20679;-79
2022/03/01 08:32:24;;;;;;;15.80;10.97;;;;;;;;;;5063451;28;20202;-79
2022/03/01 08:34:52;;;;;;;17.57;11.43;;;;;;;;;;5064047;28;20200;-77
2022/03/01 08:37:21;;;;;;;17.83;11.43;;;;;;;;;;5066056;28;20232;-78
2022/03/01 08:39:49;;;;;;;18.70;12.27;;;;;;;;;;5064856;28;20210;-78
2022/03/01 08:42:18;;;;;;;16.23;11.20;;;;;;;;;;5063022;28;20216;-78
2022/03/01 08:44:46;;;;;;;15.60;11.20;;;;;;;;;;5063132;28;20206;-79
2022/03/01 08:47:16;;;;;;;17.27;11.20;;;;;;;;;;5061965;28;20219;-78
2022/03/01 08:49:45;;;;;;;19.30;11.77;;;;;;;;;;5063353;28;20261;-78
2022/03/01 08:52:14;;;;;;;16.13;10.90;;;;;;;;;;5062015;28;20203;-77
2022/03/01 08:54:43;;;;;;;16.13;11.43;;;;;;;;;;5063581;28;20219;-79
2022/03/01 08:57:11;;;;;;;17.27;11.00;;;;;;;;;;5064381;28;20219;-78
2022/03/01 08:59:40;;;;;;;17.00;11.20;;;;;;;;;;5046170;28;20282;-78
2022/03/01 09:02:09;;;;;;;15.37;10.67;;;;;;;;;;5041153;28;20225;-78
2022/03/01 09:04:39;;;;;;;16.90;11.27;;;;;;;;;;5039598;28;20196;-78
2022/03/01 09:07:07;;;;;;;15.27;10.40;;;;;;;;;;5038566;28;20231;-80
2022/03/01 09:09:36;;;;;;;14.87;10.53;;;;;;;;;;5037317;28;20287;-77
2022/03/01 09:12:04;;;;;;;16.13;10.97;;;;;;;;;;5041850;28;20198;-78
2022/03/01 09:14:34;;;;;;;14.73;10.57;;;;;;;;;;5055044;28;20237;-77
2022/03/01 09:17:06;;;;;;;15.53;10.60;;;;;;;;;;5053866;28;20276;-76
2022/03/01 09:19:34;;;;;;;18.23;10.83;;;;;;;;;;5056024;28;20657;-77
2022/03/01 09:22:05;;;;;;;15.33;10.70;;;;;;;;;;5052760;28;20224;-78
2022/03/01 09:24:33;;;;;;;17.60;10.83;;;;;;;;;;5054322;28;20210;-79
2022/03/01 09:27:02;;;;;;;16.20;10.93;;;;;;;;;;5055195;28;20225;-79
2022/03/01 09:29:31;;;;;;;15.17;10.90;;;;;;;;;;5055249;28;20219;-78
2022/03/01 09:32:00;;;;;;;15.00;10.60;;;;;;;;;;5054346;28;20815;-78
2022/03/01 09:34:28;;;;;;;16.60;11.00;;;;;;;;;;5054173;28;20211;-77
2022/03/01 09:36:57;;;;;;;16.63;10.83;;;;;;;;;;5057112;28;20230;-79
2022/03/01 09:39:26;;;;;;;14.13;10.00;;;;;;;;;;5053747;28;20266;-77
2022/03/01 09:41:56;;;;;;;17.67;11.50;;;;;;;;;;5053484;28;20211;-79
2022/03/01 09:44:24;;;;;;;13.97;10.27;;;;;;;;;;5053704;28;20257;-77
2022/03/01 09:46:54;;;;;;;14.77;10.93;;;;;;;;;;5053285;28;20219;-79
2022/03/01 09:49:22;;;;;;;15.87;10.60;;;;;;;;;;5053218;28;20221;-79
2022/03/01 09:51:51;;;;;;;16.43;10.80;;;;;;;;;;5060288;28;20204;-77
2022/03/01 09:54:20;;;;;;;15.57;10.83;;;;;;;;;;5061277;28;20215;-78
2022/03/01 09:56:50;;;;;;;15.67;11.03;;;;;;;;;;5060936;28;20222;-80
2022/03/01 09:59:19;;;;;;;12.53;9.77;;;;;;;;;;5062498;28;20215;-79
2022/03/01 10:01:50;;;;;;;15.13;10.77;;;;;;;;;;5058895;28;20553;-76
2022/03/01 10:04:19;;;;;;;14.37;9.93;;;;;;;;;;5039778;28;20203;-78
2022/03/01 10:06:49;;;;;;;13.10;10.60;;;;;;;;;;5038648;28;20281;-77
2022/03/01 10:09:18;;;;;;;14.63;10.47;;;;;;;;;;5038164;28;20222;-78
2022/03/01 10:11:47;;;;;;;13.77;10.43;;;;;;;;;;5041870;28;20198;-80
2022/03/01 10:14:27;;;;;;;13.90;9.70;;;;;;;;;;5056778;28;20682;-78
2022/03/01 10:16:57;;;;;;;13.67;10.43;;;;;;;;;;5057879;28;20708;-78
2022/03/01 10:19:26;;;;;;;14.97;11.00;;;;;;;;;;5057699;28;20206;-78
2022/03/01 10:21:59;;;;;;;16.33;10.57;;;;;;;;;;5059697;28;20219;-78
2022/03/01 10:24:27;;;;;;;14.73;10.33;;;;;;;;;;5058330;28;20207;-77
2022/03/01 10:26:57;;;;;;;14.23;10.07;;;;;;;;;;5057532;28;20219;-79
2022/03/01 10:29:47;;;;;;;12.70;9.60;;;;;;;;;;5061957;28;20211;-78
2022/03/01 10:32:15;;;;;;;15.33;9.77;;;;;;;;;;5058118;28;20202;-76
2022/03/01 10:34:56;;;;;;;14.07;10.20;;;;;;;;;;5058929;28;20215;-78
2022/03/01 10:37:29;;;;;;;13.43;10.30;;;;;;;;;;5058511;28;20226;-78
2022/03/01 10:40:10;;;;;;;15.53;11.00;;;;;;;;;;5057014;28;20203;-78
2022/03/01 10:42:40;;;;;;;13.70;9.80;;;;;;;;;;5058031;28;20701;-77
2022/03/01 10:45:11;;;;;;;14.47;10.77;;;;;;;;;;5056936;28;20654;-79
2022/03/01 10:47:39;;;;;;;13.10;9.50;;;;;;;;;;5057660;28;20215;-78
2022/03/01 10:50:09;;;;;;;14.33;10.47;;;;;;;;;;5057038;28;20206;-78
2022/03/01 10:52:39;;;;;;;16.17;10.10;;;;;;;;;;5057007;28;20210;-77
2022/03/01 10:55:07;;;;;;;13.80;9.67;;;;;;;;;;5055746;28;20206;-79
2022/03/01 10:57:36;;;;;;;15.87;11.33;;;;;;;;;;5055440;28;20656;-77
2022/03/01 11:00:04;;;;;;;15.07;10.60;;;;;;;;;;5055657;28;20214;-79
2022/03/01 11:02:34;;;;;;;13.30;9.77;;;;;;;;;;5057847;28;20227;-77
2022/03/01 11:05:03;;;;;;;12.43;10.20;;;;;;;;;;5057500;28;20229;-77
2022/03/01 11:07:32;;;;;;;13.80;9.73;;;;;;;;;;5060549;28;20273;-76
2022/03/01 11:10:02;;;;;;;12.10;9.97;;;;;;;;;;5059918;28;20194;-77
2022/03/01 11:12:31;;;;;;;14.43;10.33;;;;;;;;;;5057632;28;20187;-78
2022/03/01 11:15:08;;;;;;;15.43;10.70;;;;;;;;;;5057413;28;20568;-77
2022/03/01 11:17:45;;;;;;;12.97;9.93;;;;;;;;;;5057695;28;20701;-78
2022/03/01 11:20:15;;;;;;;14.37;10.50;;;;;;;;;;5058001;28;20201;-77
2022/03/01 11:22:46;;;;;;;13.67;9.77;;;;;;;;;;5055521;28;20261;-77
2022/03/01 11:25:17;;;;;;;14.53;10.63;;;;;;;;;;5058485;28;20249;-75
2022/03/01 11:27:46;;;;;;;14.80;10.10;;;;;;;;;;5058003;28;20227;-79
2022/03/01 11:30:17;;;;;;;14.60;10.10;;;;;;;;;;5059418;28;20659;-78
2022/03/01 11:32:48;;;;;;;15.37;9.90;;;;;;;;;;5057449;28;20202;-78
2022/03/01 11:35:17;;;;;;;14.93;10.03;;;;;;;;;;5058129;28;20187;-77
2022/03/01 11:37:46;;;;;;;12.23;9.80;;;;;;;;;;5057576;28;20231;-78
2022/03/01 11:40:22;;;;;;;15.17;10.50;;;;;;;;;;5057107;28;20226;-77
2022/03/01 11:42:51;;;;;;;14.13;10.30;;;;;;;;;;5065787;28;20222;-76
2022/03/01 11:45:21;;;;;;;16.00;10.50;;;;;;;;;;5062285;28;20204;-79
2022/03/01 11:47:51;;;;;;;13.67;10.47;;;;;;;;;;5059975;28;20273;-77
2022/03/01 11:50:23;;;;;;;15.77;11.03;;;;;;;;;;5063646;28;20223;-76
2022/03/01 11:52:58;;;;;;;12.43;9.90;;;;;;;;;;5061330;28;20659;-76
2022/03/01 11:55:33;;;;;;;13.27;9.80;;;;;;;;;;5060984;28;20209;-77
2022/03/01 11:58:02;;;;;;;12.17;10.33;;;;;;;;;;5054310;28;20239;-77
2022/03/01 12:00:33;;;;;;;16.40;10.77;;;;;;;;;;5054247;28;20235;-77
2022/03/01 12:03:04;;;;;;;14.00;10.53;;;;;;;;;;5053952;28;20255;-77
2022/03/01 12:05:38;;;;;;;14.77;10.87;;;;;;;;;;5054237;28;20253;-77
2022/03/01 12:08:07;;;;;;;13.43;10.47;;;;;;;;;;5053897;28;20211;-76
2022/03/01 12:10:57;;;;;;;15.00;10.53;;;;;;;;;;5052921;28;20732;-77
2022/03/01 12:13:35;;;;;;;13.13;10.77;;;;;;;;;;4702214;28;10000052;-77
2022/03/01 12:16:04;;;;;;;13.13;9.77;;;;;;;;;;5050696;28;20574;-77
2022/03/01 12:18:37;;;;;;;13.23;10.27;;;;;;;;;;5050680;28;20210;-77
2022/03/01 12:21:06;;;;;;;12.73;9.60;;;;;;;;;;5050997;28;20651;-76
2022/03/01 12:23:39;;;;;;;12.90;10.17;;;;;;;;;;5051003;28;20242;-77
2022/03/01 12:26:09;;;;;;;13.27;9.50;;;;;;;;;;5050687;28;20219;-77
2022/03/01 12:28:38;;;;;;;12.80;9.33;;;;;;;;;;5050253;28;20202;-77
2022/03/01 12:31:08;;;;;;;13.03;9.77;;;;;;;;;;5050713;28;20210;-77
2022/03/01 12:33:47;;;;;;;13.03;9.50;;;;;;;;;;5050741;28;20253;-77
2022/03/01 12:36:23;;;;;;;13.13;9.83;;;;;;;;;;5050424;28;20796;-77
2022/03/01 12:38:55;;;;;;;12.07;9.03;;;;;;;;;;5050551;28;20202;-77
2022/03/01 12:41:24;;;;;;;12.13;9.10;;;;;;;;;;5049769;28;20211;-77
2022/03/01 12:43:53;;;;;;;13.17;9.73;;;;;;;;;;5050717;28;20231;-77
2022/03/01 12:46:22;;;;;;;12.87;9.47;;;;;;;;;;5053326;28;20270;-76
2022/03/01 12:48:53;;;;;;;12.40;9.30;;;;;;;;;;5053200;28;20299;-77
2022/03/01 12:51:22;;;;;;;14.63;9.90;;;;;;;;;;5053102;28;20207;-76
2022/03/01 12:53:57;;;;;;;11.50;9.13;;;;;;;;;;5053113;28;20221;-77
2022/03/01 12:56:26;;;;;;;14.13;9.47;;;;;;;;;;5053085;28;20276;-77
2022/03/01 12:58:55;;;;;;;11.33;8.80;;;;;;;;;;5053006;28;20241;-77
2022/03/01 13:01:24;;;;;;;12.93;9.27;;;;;;;;;;5053055;28;20206;-76
2022/03/01 13:03:54;;;;;;;13.97;9.20;;;;;;;;;;5053171;28;20265;-76
2022/03/01 13:06:23;;;;;;;12.03;9.83;;;;;;;;;;5052839;28;20227;-77
2022/03/01 13:08:52;;;;;;;13.83;9.40;;;;;;;;;;5052518;28;20206;-77
2022/03/01 13:11:21;;;;;;;13.87;9.50;;;;;;;;;;5052261;28;20599;-77
2022/03/01 13:13:50;;;;;;;12.93;9.60;;;;;;;;;;5053250;28;20206;-76
2022/03/01 13:16:20;;;;;;;10.77;8.80;;;;;;;;;;5052883;28;20632;-77
2022/03/01 13:18:49;;;;;;;12.03;9.47;;;;;;;;;;5052204;28;20742;-76
2022/03/01 13:21:25;;;;;;;11.53;8.83;;;;;;;;;;5052555;28;20198;-77
2022/03/01 13:23:54;;;;;;;14.03;9.57;;;;;;;;;;5049329;28;20219;-77
2022/03/01 13:26:23;;;;;;;11.50;10.00;;;;;;;;;;5049943;28;20218;-77
2022/03/01 13:28:52;;;;;;;12.47;9.17;;;;;;;;;;5056790;28;20210;-77
2022/03/01 13:31:22;;;;;;;10.33;8.87;;;;;;;;;;5057245;28;20215;-77
2022/03/01 13:33:54;;;;;;;10.53;8.77;;;;;;;;;;5059233;28;20203;-77
2022/03/01 13:36:23;;;;;;;11.90;8.47;;;;;;;;;;5061112;28;20250;-77
2022/03/01 13:39:09;;;;;;;12.50;8.87;;;;;;;;;;5058376;28;20199;-77
2022/03/01 13:41:40;;;;;;;12.53;9.40;;;;;;;;;;5057330;28;20198;-76
2022/03/01 13:44:16;;;;;;;13.07;9.00;;;;;;;;;;5058162;28;20226;-76
2022/03/01 13:46:55;;;;;;;11.17;8.87;;;;;;;;;;5060186;28;20222;-76
2022/03/01 13:49:26;;;;;;;11.27;9.03;;;;;;;;;;5052226;28;20221;-77
2022/03/01 13:52:04;;;;;;;11.30;9.03;;;;;;;;;;5056259;28;20605;-76
2022/03/01 13:54:32;;;;;;;12.63;9.13;;;;;;;;;;5058628;28;20195;-76
2022/03/01 13:57:03;;;;;;;12.50;9.47;;;;;;;;;;5056891;28;20229;-77
2022/03/01 13:59:33;;;;;;;11.33;9.23;;;;;;;;;;5055506;28;20227;-77
2022/03/01 14:02:02;;;;;;;12.33;9.20;;;;;;;;;;5057180;28;20209;-77
2022/03/01 14:04:32;;;;;;;12.80;9.40;;;;;;;;;;5058937;23;20234;-76
2022/03/01 14:07:01;;;;;;;11.20;8.73;;;;;;;;;;5045413;22;20709;-77
2022/03/01 14:09:58;;;;;;;12.57;8.43;;;;;;;;;;5059494;28;20587;-77
2022/03/01 14:12:34;;;;;;;12.47;8.97;;;;;;;;;;5059060;28;20199;-77
2022/03/01 14:15:18;;;;;;;11.27;8.50;;;;;;;;;;5068672;28;20590;-77
2022/03/01 14:17:56;;;;;;;11.00;9.17;;;;;;;;;;5057660;28;20219;-77
2022/03/01 14:20:25;;;;;;;12.23;9.10;;;;;;;;;;5056399;28;20673;-77
2022/03/01 14:22:53;;;;;;;11.70;8.80;;;;;;;;;;5058326;28;20206;-77
2022/03/01 14:25:22;;;;;;;12.97;9.20;;;;;;;;;;5057275;28;20214;-77
2022/03/01 14:27:52;;;;;;;12.53;9.10;;;;;;;;;;5058520;28;20211;-77
2022/03/01 14:30:21;;;;;;;11.43;9.27;;;;;;;;;;5058459;28;20198;-77
2022/03/01 14:32:51;;;;;;;11.47;8.63;;;;;;;;;;5059126;28;20226;-77
2022/03/01 14:35:21;;;;;;;13.67;9.27;;;;;;;;;;5058747;28;20198;-76
2022/03/01 14:37:50;;;;;;;14.10;8.97;;;;;;;;;;5051556;28;20232;-77
2022/03/01 14:40:19;;;;;;;11.37;8.50;;;;;;;;;;5048334;28;20218;-77
2022/03/01 14:42:53;;;;;;;12.43;8.23;;;;;;;;;;5051746;28;20324;-77